sensor_id;sensor_type;location;lat;lon;timestamp;P1;durP1;ratioP1;P2;durP2;ratioP2
1593;SDS011;790;47.000;16.084;2022-07-05T00:02:15;3.72;;;2.95;;
1593;SDS011;790;47.000;16.084;2022-07-05T00:13:02;3.40;;;2.50;;
1593;SDS011;790;47.000;16.084;2022-07-05T00:19:10;3.03;;;2.83;;
1593;SDS011;790;47.000;16.084;2022-07-05T00:25:19;3.22;;;2.90;;
1593;SDS011;790;47.000;16.084;2022-07-05T00:31:28;4.68;;;2.92;;
1593;SDS011;790;47.000;16.084;2022-07-05T00:37:36;2.60;;;2.40;;
1593;SDS011;790;47.000;16.084;2022-07-05T00:43:50;2.65;;;2.45;;
1593;SDS011;790;47.000;16.084;2022-07-05T00:50:00;3.30;;;2.88;;
1593;SDS011;790;47.000;16.084;2022-07-05T00:56:08;3.05;;;2.55;;
1593;SDS011;790;47.000;16.084;2022-07-05T01:02:17;3.40;;;3.10;;
1593;SDS011;790;47.000;16.084;2022-07-05T01:12:44;5.72;;;3.90;;
1593;SDS011;790;47.000;16.084;2022-07-05T01:19:06;3.88;;;3.58;;
1593;SDS011;790;47.000;16.084;2022-07-05T01:25:31;3.80;;;3.00;;
1593;SDS011;790;47.000;16.084;2022-07-05T01:31:52;3.67;;;3.38;;
1593;SDS011;790;47.000;16.084;2022-07-05T01:38:14;4.85;;;2.80;;
1593;SDS011;790;47.000;16.084;2022-07-05T01:44:38;3.20;;;2.88;;
1593;SDS011;790;47.000;16.084;2022-07-05T01:51:01;3.40;;;3.08;;
1593;SDS011;790;47.000;16.084;2022-07-05T01:57:25;4.07;;;3.38;;
1593;SDS011;790;47.000;16.084;2022-07-05T02:03:49;3.33;;;3.03;;
1593;SDS011;790;47.000;16.084;2022-07-05T02:14:35;4.60;;;2.70;;
1593;SDS011;790;47.000;16.084;2022-07-05T02:20:44;5.18;;;2.53;;
1593;SDS011;790;47.000;16.084;2022-07-05T02:26:52;5.43;;;4.93;;
1593;SDS011;790;47.000;16.084;2022-07-05T02:33:00;3.20;;;3.00;;
1593;SDS011;790;47.000;16.084;2022-07-05T02:39:09;3.75;;;3.38;;
1593;SDS011;790;47.000;16.084;2022-07-05T02:45:18;3.75;;;2.80;;
1593;SDS011;790;47.000;16.084;2022-07-05T02:51:26;5.03;;;4.53;;
1593;SDS011;790;47.000;16.084;2022-07-05T02:57:36;3.22;;;2.85;;
1593;SDS011;790;47.000;16.084;2022-07-05T03:03:44;3.30;;;2.63;;
1593;SDS011;790;47.000;16.084;2022-07-05T03:14:08;2.42;;;2.13;;
1593;SDS011;790;47.000;16.084;2022-07-05T03:20:29;2.92;;;2.65;;
1593;SDS011;790;47.000;16.084;2022-07-05T03:26:49;3.28;;;3.08;;
1593;SDS011;790;47.000;16.084;2022-07-05T03:33:12;2.33;;;2.20;;
1593;SDS011;790;47.000;16.084;2022-07-05T03:39:33;2.95;;;2.67;;
1593;SDS011;790;47.000;16.084;2022-07-05T03:45:54;2.75;;;2.42;;
1593;SDS011;790;47.000;16.084;2022-07-05T03:52:17;3.05;;;2.80;;
1593;SDS011;790;47.000;16.084;2022-07-05T03:58:38;3.05;;;2.85;;
1593;SDS011;790;47.000;16.084;2022-07-05T04:04:59;3.45;;;3.15;;
1593;SDS011;790;47.000;16.084;2022-07-05T04:15:47;3.35;;;3.05;;
1593;SDS011;790;47.000;16.084;2022-07-05T04:21:55;3.47;;;3.28;;
1593;SDS011;790;47.000;16.084;2022-07-05T04:28:03;3.00;;;2.80;;
1593;SDS011;790;47.000;16.084;2022-07-05T04:34:13;3.78;;;3.47;;
1593;SDS011;790;47.000;16.084;2022-07-05T04:40:20;3.50;;;3.20;;
1593;SDS011;790;47.000;16.084;2022-07-05T04:46:29;6.13;;;3.20;;
1593;SDS011;790;47.000;16.084;2022-07-05T04:52:38;2.92;;;2.80;;
1593;SDS011;790;47.000;16.084;2022-07-05T04:58:46;4.65;;;3.10;;
1593;SDS011;790;47.000;16.084;2022-07-05T05:04:54;3.20;;;3.00;;
1593;SDS011;790;47.000;16.084;2022-07-05T05:15:09;3.35;;;3.03;;
1593;SDS011;790;47.000;16.084;2022-07-05T05:21:29;4.75;;;3.47;;
1593;SDS011;790;47.000;16.084;2022-07-05T05:27:51;3.17;;;2.97;;
1593;SDS011;790;47.000;16.084;2022-07-05T05:34:14;4.05;;;3.67;;
1593;SDS011;790;47.000;16.084;2022-07-05T05:40:35;3.22;;;3.05;;
1593;SDS011;790;47.000;16.084;2022-07-05T05:46:59;3.45;;;3.13;;
1593;SDS011;790;47.000;16.084;2022-07-05T05:53:23;3.80;;;3.50;;
1593;SDS011;790;47.000;16.084;2022-07-05T05:59:44;4.60;;;2.97;;
1593;SDS011;790;47.000;16.084;2022-07-05T06:06:06;3.55;;;3.03;;
1593;SDS011;790;47.000;16.084;2022-07-05T06:16:44;3.90;;;3.65;;
1593;SDS011;790;47.000;16.084;2022-07-05T06:22:52;4.00;;;3.80;;
1593;SDS011;790;47.000;16.084;2022-07-05T06:29:00;4.30;;;4.00;;
1593;SDS011;790;47.000;16.084;2022-07-05T06:35:10;3.95;;;3.67;;
1593;SDS011;790;47.000;16.084;2022-07-05T06:41:19;3.90;;;3.60;;
1593;SDS011;790;47.000;16.084;2022-07-05T06:47:26;4.47;;;4.07;;
1593;SDS011;790;47.000;16.084;2022-07-05T06:53:35;3.85;;;3.47;;
1593;SDS011;790;47.000;16.084;2022-07-05T06:59:43;3.50;;;3.30;;
1593;SDS011;790;47.000;16.084;2022-07-05T07:05:51;6.32;;;4.30;;
1593;SDS011;790;47.000;16.084;2022-07-05T07:16:05;4.28;;;3.97;;
1593;SDS011;790;47.000;16.084;2022-07-05T07:22:26;4.05;;;3.85;;
1593;SDS011;790;47.000;16.084;2022-07-05T07:28:48;4.32;;;3.97;;
1593;SDS011;790;47.000;16.084;2022-07-05T07:35:10;5.07;;;4.25;;
1593;SDS011;790;47.000;16.084;2022-07-05T07:41:31;4.13;;;3.78;;
1593;SDS011;790;47.000;16.084;2022-07-05T07:47:53;3.92;;;3.63;;
1593;SDS011;790;47.000;16.084;2022-07-05T07:54:15;4.00;;;3.70;;
1593;SDS011;790;47.000;16.084;2022-07-05T08:00:35;3.90;;;3.70;;
1593;SDS011;790;47.000;16.084;2022-07-05T08:06:57;3.70;;;3.40;;
1593;SDS011;790;47.000;16.084;2022-07-05T08:17:35;3.90;;;3.50;;
1593;SDS011;790;47.000;16.084;2022-07-05T08:23:43;3.10;;;3.00;;
1593;SDS011;790;47.000;16.084;2022-07-05T08:29:50;3.45;;;3.25;;
1593;SDS011;790;47.000;16.084;2022-07-05T08:36:00;3.45;;;3.25;;
1593;SDS011;790;47.000;16.084;2022-07-05T08:42:08;4.15;;;3.13;;
1593;SDS011;790;47.000;16.084;2022-07-05T08:48:16;3.03;;;2.83;;
1593;SDS011;790;47.000;16.084;2022-07-05T08:54:27;2.88;;;2.75;;
1593;SDS011;790;47.000;16.084;2022-07-05T09:00:36;3.40;;;2.95;;
1593;SDS011;790;47.000;16.084;2022-07-05T09:06:45;2.85;;;2.65;;
1593;SDS011;790;47.000;16.084;2022-07-05T09:17:00;2.70;;;2.60;;
1593;SDS011;790;47.000;16.084;2022-07-05T09:23:23;2.50;;;2.40;;
1593;SDS011;790;47.000;16.084;2022-07-05T09:29:53;2.20;;;2.10;;
1593;SDS011;790;47.000;16.084;2022-07-05T09:36:49;2.30;;;2.20;;
1593;SDS011;790;47.000;16.084;2022-07-05T09:43:12;2.08;;;1.98;;
1593;SDS011;790;47.000;16.084;2022-07-05T09:49:33;2.15;;;2.05;;
1593;SDS011;790;47.000;16.084;2022-07-05T09:56:02;2.33;;;2.20;;
1593;SDS011;790;47.000;16.084;2022-07-05T10:02:24;2.50;;;2.40;;
1593;SDS011;790;47.000;16.084;2022-07-05T10:08:55;2.63;;;2.47;;
1593;SDS011;790;47.000;16.084;2022-07-05T10:19:42;2.58;;;2.38;;
1593;SDS011;790;47.000;16.084;2022-07-05T10:25:53;2.50;;;2.40;;
1593;SDS011;790;47.000;16.084;2022-07-05T10:32:04;2.65;;;2.45;;
1593;SDS011;790;47.000;16.084;2022-07-05T10:38:16;2.67;;;2.47;;
1593;SDS011;790;47.000;16.084;2022-07-05T10:44:25;2.92;;;2.72;;
1593;SDS011;790;47.000;16.084;2022-07-05T10:50:42;2.70;;;2.60;;
1593;SDS011;790;47.000;16.084;2022-07-05T11:03:34;2.97;;;2.72;;
1593;SDS011;790;47.000;16.084;2022-07-05T11:09:58;2.70;;;2.60;;
1593;SDS011;790;47.000;16.084;2022-07-05T11:20:33;2.25;;;2.15;;
1593;SDS011;790;47.000;16.084;2022-07-05T11:26:57;2.60;;;2.45;;
1593;SDS011;790;47.000;16.084;2022-07-05T11:33:25;3.63;;;2.60;;
1593;SDS011;790;47.000;16.084;2022-07-05T11:46:48;2.40;;;2.30;;
1593;SDS011;790;47.000;16.084;2022-07-05T11:53:10;2.28;;;2.08;;
1593;SDS011;790;47.000;16.084;2022-07-05T11:59:32;0.80;;;0.80;;
1593;SDS011;790;47.000;16.084;2022-07-05T12:05:54;1.92;;;1.90;;
1593;SDS011;790;47.000;16.084;2022-07-05T12:12:17;0.75;;;0.75;;
1593;SDS011;790;47.000;16.084;2022-07-05T12:23:51;0.50;;;0.50;;
1593;SDS011;790;47.000;16.084;2022-07-05T12:29:59;0.50;;;0.50;;
1593;SDS011;790;47.000;16.084;2022-07-05T12:36:10;0.65;;;0.65;;
1593;SDS011;790;47.000;16.084;2022-07-05T12:48:50;0.60;;;0.60;;
1593;SDS011;790;47.000;16.084;2022-07-05T12:55:09;1.83;;;0.60;;
1593;SDS011;790;47.000;16.084;2022-07-05T13:01:36;2.63;;;0.75;;
1593;SDS011;790;47.000;16.084;2022-07-05T13:07:47;0.70;;;0.70;;
1593;SDS011;790;47.000;16.084;2022-07-05T13:13:57;1.77;;;0.70;;
1593;SDS011;790;47.000;16.084;2022-07-05T13:24:30;0.80;;;0.80;;
1593;SDS011;790;47.000;16.084;2022-07-05T13:30:52;1.23;;;0.68;;
1593;SDS011;790;47.000;16.084;2022-07-05T13:37:12;0.70;;;0.70;;
1593;SDS011;790;47.000;16.084;2022-07-05T13:43:35;0.90;;;0.90;;
1593;SDS011;790;47.000;16.084;2022-07-05T13:49:57;0.88;;;0.88;;
1593;SDS011;790;47.000;16.084;2022-07-05T13:56:32;0.70;;;0.70;;
1593;SDS011;790;47.000;16.084;2022-07-05T14:02:56;1.85;;;0.80;;
1593;SDS011;790;47.000;16.084;2022-07-05T14:09:17;0.80;;;0.80;;
1593;SDS011;790;47.000;16.084;2022-07-05T14:15:39;0.80;;;0.80;;
1593;SDS011;790;47.000;16.084;2022-07-05T14:26:35;0.88;;;0.88;;
1593;SDS011;790;47.000;16.084;2022-07-05T14:32:45;1.02;;;1.02;;
1593;SDS011;790;47.000;16.084;2022-07-05T14:38:53;1.02;;;0.90;;
1593;SDS011;790;47.000;16.084;2022-07-05T14:45:03;0.75;;;0.75;;
1593;SDS011;790;47.000;16.084;2022-07-05T14:51:11;0.90;;;0.90;;
1593;SDS011;790;47.000;16.084;2022-07-05T14:57:19;0.90;;;0.90;;
1593;SDS011;790;47.000;16.084;2022-07-05T15:03:29;1.50;;;0.90;;
1593;SDS011;790;47.000;16.084;2022-07-05T15:09:37;1.23;;;1.10;;
1593;SDS011;790;47.000;16.084;2022-07-05T15:15:45;1.38;;;1.38;;
1593;SDS011;790;47.000;16.084;2022-07-05T15:26:28;0.93;;;0.93;;
1593;SDS011;790;47.000;16.084;2022-07-05T15:32:49;1.58;;;1.30;;
1593;SDS011;790;47.000;16.084;2022-07-05T15:39:10;1.17;;;1.17;;
1593;SDS011;790;47.000;16.084;2022-07-05T15:45:33;1.20;;;1.20;;
1593;SDS011;790;47.000;16.084;2022-07-05T15:51:55;1.15;;;1.15;;
1593;SDS011;790;47.000;16.084;2022-07-05T15:58:16;2.85;;;1.30;;
1593;SDS011;790;47.000;16.084;2022-07-05T16:04:38;1.33;;;1.20;;
1593;SDS011;790;47.000;16.084;2022-07-05T16:11:00;1.95;;;1.20;;
1593;SDS011;790;47.000;16.084;2022-07-05T16:17:22;1.55;;;1.25;;
1593;SDS011;790;47.000;16.084;2022-07-05T16:28:09;1.20;;;1.20;;
1593;SDS011;790;47.000;16.084;2022-07-05T16:34:17;1.20;;;1.20;;
1593;SDS011;790;47.000;16.084;2022-07-05T16:40:25;1.10;;;1.10;;
1593;SDS011;790;47.000;16.084;2022-07-05T16:46:35;1.73;;;1.30;;
1593;SDS011;790;47.000;16.084;2022-07-05T16:52:42;2.72;;;1.70;;
1593;SDS011;790;47.000;16.084;2022-07-05T16:58:51;1.60;;;1.50;;
1593;SDS011;790;47.000;16.084;2022-07-05T17:05:01;1.70;;;1.60;;
1593;SDS011;790;47.000;16.084;2022-07-05T17:11:10;1.45;;;1.38;;
1593;SDS011;790;47.000;16.084;2022-07-05T17:17:19;1.60;;;1.55;;
1593;SDS011;790;47.000;16.084;2022-07-05T17:27:43;3.70;;;1.40;;
1593;SDS011;790;47.000;16.084;2022-07-05T17:34:06;2.60;;;2.13;;
1593;SDS011;790;47.000;16.084;2022-07-05T17:40:27;2.00;;;1.85;;
1593;SDS011;790;47.000;16.084;2022-07-05T17:46:50;1.83;;;1.73;;
1593;SDS011;790;47.000;16.084;2022-07-05T17:53:12;1.48;;;1.45;;
1593;SDS011;790;47.000;16.084;2022-07-05T17:59:33;3.70;;;1.70;;
1593;SDS011;790;47.000;16.084;2022-07-05T18:05:56;1.75;;;1.52;;
1593;SDS011;790;47.000;16.084;2022-07-05T18:12:18;2.30;;;2.00;;
1593;SDS011;790;47.000;16.084;2022-07-05T18:18:39;4.00;;;1.85;;
1593;SDS011;790;47.000;16.084;2022-07-05T18:29:26;3.22;;;2.10;;
1593;SDS011;790;47.000;16.084;2022-07-05T18:35:34;1.90;;;1.80;;
1593;SDS011;790;47.000;16.084;2022-07-05T18:41:42;2.53;;;1.98;;
1593;SDS011;790;47.000;16.084;2022-07-05T18:47:53;2.53;;;2.00;;
1593;SDS011;790;47.000;16.084;2022-07-05T18:54:01;2.05;;;1.95;;
1593;SDS011;790;47.000;16.084;2022-07-05T19:00:10;1.90;;;1.90;;
1593;SDS011;790;47.000;16.084;2022-07-05T19:06:20;2.85;;;2.40;;
1593;SDS011;790;47.000;16.084;2022-07-05T19:12:45;2.00;;;1.90;;
1593;SDS011;790;47.000;16.084;2022-07-05T19:19:10;2.15;;;2.05;;
1593;SDS011;790;47.000;16.084;2022-07-05T19:29:44;2.40;;;2.20;;
1593;SDS011;790;47.000;16.084;2022-07-05T19:36:06;2.70;;;2.50;;
1593;SDS011;790;47.000;16.084;2022-07-05T19:42:28;2.83;;;2.60;;
1593;SDS011;790;47.000;16.084;2022-07-05T19:48:50;4.28;;;2.47;;
1593;SDS011;790;47.000;16.084;2022-07-05T19:55:12;3.70;;;2.80;;
1593;SDS011;790;47.000;16.084;2022-07-05T20:01:33;3.70;;;2.70;;
1593;SDS011;790;47.000;16.084;2022-07-05T20:07:56;2.85;;;2.58;;
1593;SDS011;790;47.000;16.084;2022-07-05T20:14:18;3.15;;;3.00;;
1593;SDS011;790;47.000;16.084;2022-07-05T20:20:40;6.25;;;3.10;;
1593;SDS011;790;47.000;16.084;2022-07-05T20:31:27;2.92;;;2.72;;
1593;SDS011;790;47.000;16.084;2022-07-05T20:37:35;4.43;;;2.67;;
1593;SDS011;790;47.000;16.084;2022-07-05T20:43:43;3.50;;;3.20;;
1593;SDS011;790;47.000;16.084;2022-07-05T20:49:53;3.85;;;2.83;;
1593;SDS011;790;47.000;16.084;2022-07-05T20:56:01;3.17;;;2.92;;
1593;SDS011;790;47.000;16.084;2022-07-05T21:02:09;3.20;;;3.00;;
1593;SDS011;790;47.000;16.084;2022-07-05T21:08:18;3.65;;;3.20;;
1593;SDS011;790;47.000;16.084;2022-07-05T21:14:26;3.80;;;3.33;;
1593;SDS011;790;47.000;16.084;2022-07-05T21:20:34;3.72;;;3.47;;
1593;SDS011;790;47.000;16.084;2022-07-05T21:30:58;5.10;;;3.30;;
1593;SDS011;790;47.000;16.084;2022-07-05T21:37:20;3.90;;;3.60;;
1593;SDS011;790;47.000;16.084;2022-07-05T21:43:41;3.38;;;3.15;;
1593;SDS011;790;47.000;16.084;2022-07-05T21:50:05;3.90;;;3.60;;
1593;SDS011;790;47.000;16.084;2022-07-05T21:56:26;6.47;;;3.70;;
1593;SDS011;790;47.000;16.084;2022-07-05T22:02:47;4.80;;;3.95;;
1593;SDS011;790;47.000;16.084;2022-07-05T22:09:27;7.05;;;4.00;;
1593;SDS011;790;47.000;16.084;2022-07-05T22:15:50;4.60;;;4.00;;
1593;SDS011;790;47.000;16.084;2022-07-05T22:22:11;4.40;;;4.10;;
1593;SDS011;790;47.000;16.084;2022-07-05T22:32:58;4.40;;;4.10;;
1593;SDS011;790;47.000;16.084;2022-07-05T22:39:06;4.25;;;3.95;;
1593;SDS011;790;47.000;16.084;2022-07-05T22:45:15;6.43;;;3.83;;
1593;SDS011;790;47.000;16.084;2022-07-05T22:51:25;4.78;;;4.35;;
1593;SDS011;790;47.000;16.084;2022-07-05T22:57:32;5.10;;;4.68;;
1593;SDS011;790;47.000;16.084;2022-07-05T23:03:40;4.93;;;4.50;;
1593;SDS011;790;47.000;16.084;2022-07-05T23:09:49;4.85;;;4.50;;
1593;SDS011;790;47.000;16.084;2022-07-05T23:15:58;5.70;;;4.35;;
1593;SDS011;790;47.000;16.084;2022-07-05T23:22:05;5.20;;;4.72;;
1593;SDS011;790;47.000;16.084;2022-07-05T23:32:29;5.10;;;4.80;;
1593;SDS011;790;47.000;16.084;2022-07-05T23:38:51;4.65;;;4.25;;
1593;SDS011;790;47.000;16.084;2022-07-05T23:45:13;4.82;;;4.53;;
1593;SDS011;790;47.000;16.084;2022-07-05T23:51:37;5.60;;;5.15;;
1593;SDS011;790;47.000;16.084;2022-07-05T23:57:58;4.97;;;4.57;;
